• Join FlightAware (Why Join?)
  • Login
  • US Flag 
10:18PM EDT


 

Airport Tracker/Info


-or-


 

Live Flight TrackerFlight Track Log ✈ ASQ5685 ✈ 01-Dec-2013 ✈ KATL - KIAD

Flight Track Log - Related Links

Times and Time Zones

All times are in EST time to prevent confusion due to time zone crossing. See the ASQ5685 flight status page for this flight to view local times or setup timezone preferences in your user account.

Time Position Orientation Groundspeed Altitude Reporting Facility
EST Latitude Longitude Course Direction KTS MPH feet Rate Location/Type
09:37AM 33.6333 -84.3667 65° Northeast 202 232 2,600  Level Atlanta TRACON
09:38AM 33.6333 -84.2833 90° East 271 312 4,800 2,400 Climbing Atlanta TRACON
09:39AM 33.8727 -84.1474 54° Northeast  Level Estimated
09:39AM 33.6333 -84.1833 90° East 291 335 7,500  Level Atlanta TRACON
09:40AM 33.8706 -84.0142 91° East  Level FlightAware Approximate
09:40AM 33.6500 -84.0833 79° East 316 364 9,800  Level Atlanta TRACON
09:40AM 33.6817 -84.0414 48° Northeast 333 383 10,700 1,200 Climbing Atlanta Center
09:41AM 33.9499 -83.9212 53° Northeast  Level Estimated
09:41AM 33.7400 -83.9639 48° Northeast 343 395 11,700  Level Atlanta Center
09:42AM 33.9971 -83.8006 65° Northeast  Level FlightAware Approximate
09:42AM 33.8108 -83.8714 47° Northeast 356 410 13,500  Level Atlanta Center
09:43AM 33.8817 -83.7786 47° Northeast 367 422 15,300 1,800 Climbing Atlanta Center
09:44AM 33.9503 -83.6833 49° Northeast 372 428 17,200 1,500 Climbing Atlanta Center
09:45AM 34.0125 -83.5828 53° Northeast 377 434 18,300 1,200 Climbing Atlanta Center
09:46AM 34.0769 -83.4794 53° Northeast 377 434 19,700 1,200 Climbing Atlanta Center
09:47AM 34.1431 -83.3736 53° Northeast 388 447 20,800 1,020 Climbing Atlanta Center
09:48AM 34.2092 -83.2625 54° Northeast 393 452 21,800 960 Climbing Atlanta Center
09:49AM 34.2856 -83.1436 52° Northeast 403 464 22,800 960 Climbing Atlanta Center
09:50AM 34.3558 -83.0322 53° Northeast 408 470 23,800 960 Climbing Atlanta Center
09:51AM 34.4258 -82.9181 53° Northeast 413 475 24,800 840 Climbing Atlanta Center
09:52AM 34.4936 -82.8064 54° Northeast 413 475 25,500 600 Climbing Atlanta Center
09:53AM 34.5717 -82.6892 51° Northeast 423 487 26,000 420 Climbing Atlanta Center
09:54AM 34.6247 -82.5897 57° Northeast 435 501 26,400 420 Climbing Atlanta Center
09:55AM 34.7086 -82.4594 52° Northeast 440 506 26,900 300 Climbing Atlanta Center
09:56AM 34.7864 -82.3392 52° Northeast 446 513 27,000  Climbing Atlanta Center
09:57AM 34.8617 -82.2086 55° Northeast 451 519 27,000  Level Atlanta Center
09:58AM 34.9533 -82.0647 52° Northeast 472 543 27,000  Level Atlanta Center
09:59AM 35.0325 -81.9333 54° Northeast 483 556 27,000  Level Atlanta Center
10:00AM 35.1094 -81.7944 56° Northeast 488 562 27,000  Level Atlanta Center
10:01AM 35.1797 -81.6503 59° Northeast 493 567 27,000  Level Atlanta Center
10:02AM 35.2561 -81.5081 57° Northeast 493 567 27,000  Level Atlanta Center
10:03AM 35.3303 -81.3631 58° Northeast 493 567 27,000  Level Atlanta Center
10:04AM 35.4042 -81.2206 58° Northeast 493 567 27,000  Level Atlanta Center
10:05AM 35.4761 -81.0881 56° Northeast 498 573 27,000  Level Atlanta Center
10:06AM 35.5519 -80.9425 57° Northeast 498 573 27,000  Level Atlanta Center
10:07AM 35.6256 -80.7992 58° Northeast 498 573 27,000  Level Atlanta Center
10:08AM 35.7028 -80.6503 57° Northeast 503 579 27,000  Level Atlanta Center
10:09AM 35.7758 -80.5039 58° Northeast 503 579 27,000  Level Atlanta Center
10:12AM 35.9586 -80.1494 57° Northeast 504 580 27,000  Level Washington Center
10:13AM 36.0242 -80.0197 58° Northeast 504 580 27,000  Level Washington Center
10:14AM 36.1064 -79.8753 55° Northeast 504 580 27,000  Level Washington Center
10:15AM 36.1936 -79.7153 56° Northeast 504 580 27,000  Level Washington Center
10:16AM 36.2669 -79.5825 56° Northeast 509 586 27,000  Level Washington Center
10:17AM 36.3486 -79.4447 54° Northeast 509 586 27,000 -180 Level Washington Center
10:18AM 36.4372 -79.2814 56° Northeast 509 586 26,700 -540 Descending Washington Center
10:19AM 36.5189 -79.1353 55° Northeast 509 586 26,000 -600 Descending Washington Center
10:20AM 36.5933 -79.0094 54° Northeast 503 579 25,600 -540 Descending Washington Center
10:21AM 36.6814 -78.8475 56° Northeast 503 579 25,000 -360 Descending Washington Center
10:22AM 36.7494 -78.7181 57° Northeast 503 579 25,000  Level Washington Center
10:23AM 36.8283 -78.5761 55° Northeast 503 579 25,000  Level Washington Center
10:24AM 36.9156 -78.4183 55° Northeast 503 579 25,000  Level Washington Center
10:25AM 36.9961 -78.2756 55° Northeast 503 579 25,000  Level Washington Center
10:26AM 37.0922 -78.1644 43° Northeast 472 543 25,000  Level Washington Center
10:27AM 37.2047 -78.0794 31° Northeast 464 534 25,000  Level Washington Center
10:28AM 37.3169 -77.9944 31° Northeast 464 534 25,000 -480 Level Washington Center
10:29AM 37.4314 -77.9064 31° Northeast 469 540 24,100 -1,560 Descending Washington Center
10:30AM 37.5414 -77.8208 32° Northeast 469 540 22,000 -1,620 Descending Washington Center
10:31AM 37.6553 -77.7533 25° Northeast 463 533 20,900 -1,920 Descending Washington Center
10:32AM 37.7669 -77.6908 24° Northeast 452 520 18,200 -2,460 Descending Washington Center
10:33AM 37.8744 -77.6253 26° Northeast 437 503 16,100 -2,280 Descending Washington Center
10:34AM 37.9778 -77.5650 25° Northeast 425 489 13,700 -2,160 Descending Washington Center
10:35AM 38.0681 -77.5144 24° Northeast 405 466 11,800 -1,500 Descending Washington Center
10:36AM 38.1733 -77.4511 25° Northeast 379 436 10,700 -960 Descending Washington Center
10:37AM 38.2303 -77.4183 24° Northeast 331 381 10,000 -840 Descending Washington Center
10:38AM 38.3019 -77.3722 27° Northeast 294 338 9,100 -900 Descending Washington Center
10:39AM 38.3858 -77.3347 19° North 283 326 8,200 -1,200 Descending Washington Center
10:40AM 38.4583 -77.3603 345° North 275 316 6,800 -1,260 Descending Washington Center
10:41AM 38.5356 -77.3647 357° North 275 316 5,700 -960 Descending Washington Center
10:42AM 38.6064 -77.3664 359° North 270 311 4,900 -780 Descending Washington Center
10:42AM 38.6667 -77.3667 360° North 257 296 4,400 -540 Descending Potomac TRACON
10:43AM 38.7333 -77.3500 11° North 253 291 4,000 -240 Descending Potomac TRACON
10:44AM 38.8167 -77.3500 360° North 254 292 4,000 -300 Level Potomac TRACON
10:45AM 38.8833 -77.3500 360° North 250 288 3,500 -480 Descending Potomac TRACON
10:46AM 38.9500 -77.3500 360° North 252 290 3,100 -420 Descending Potomac TRACON
10:47AM 39.0167 -77.3500 360° North 246 283 2,700 -540 Descending Potomac TRACON
10:48AM 39.0500 -77.3833 322° Northwest 217 250 2,100 -600 Descending Potomac TRACON
10:49AM 39.0167 -77.4167 218° Southwest 163 188 1,600 -600 Descending Potomac TRACON
10:50AM 38.9833 -77.4333 201° Southwest 141 162 1,000 -660 Descending Potomac TRACON